New Lebanon Center, New York
Current Conditions -  °F | °C
As of 4:54 AM on Saturday 20 Dec 2014 (Local Time) from KPSF Reporting Station
Clear Clear  
Wind Chill: 10°   Ceiling: Unl
Heat Index: 18°   Visibility: 10mi
Dew Point: 14°   Wind: 6mph
Humidity: 84%   Direction: 250°WSW
Pressure: 30.15"   Gusts: NA
Location:  42.4821°N, 73.3747°W
Report Text: KPSF 200954Z AUTO 25005KT 10SM CLR M08/M10 A3015 RMK AO2 SLP230 T10781100
Loading
Personal Weather Stations






























Interactive Weather Map New forecast layout! Learn more

10-Day Weather Forecast

Advertisements
Track Severe Weather on mobile